»·PEaware :: N45XS KYKM-CYLW

N45XS :: KYKM-CYLW

FLIGHT INFORMATION

Flight Status: Arrived
Operator: Privately registered:
United States
More flights under this callsign
Pilot: Maurice Cohen (12314)
Aircraft: BEECH AIRCRAFT BARON
(BE58)
More flights by this aircraft type
Origin: KYKM Yakima Air Term/Mcallister
United States
Destination: CYLW Kelowna
Canada
More flights between these airports :: More routes between these airports
Route: +DRCT
File this flight plan on PilotEdge
Remarks:
Altitude:
(Current/Filed)
9,500ft
Speed:
(Current/Filed)
170kts
Departed: 26-Jul-17 11:47 AM
Arrived: 26-Jul-17 01:04 PM
Distance/Time
Traveled:
208nm/1:17
Distance/Time
To Go:
Arrived

Flight Plot

Page will automatically refresh every two minutes.

Flight plan parsing failed; only flown route is shown


Map Options




Map Legend


Flown Route
Filed Route
Departure Airport
Arrival Airport
Navaid (VOR, NDB)
Fix

Horizontal Profiles

Position Reports

Time Latitude Longitude Heading Altitude Ground
Speed
26-Jul-17 11:41 46.571403 -120.548061 88 1070ft 0kts
26-Jul-17 11:42 46.571403 -120.548061 88 1070ft 0kts
26-Jul-17 11:43 46.571403 -120.548061 88 1070ft 0kts
26-Jul-17 11:44 46.571403 -120.548061 88 1070ft 0kts
26-Jul-17 11:45 46.571403 -120.548061 88 1070ft 0kts
26-Jul-17 11:46 46.571403 -120.548061 88 1070ft 0kts
26-Jul-17 11:47 46.569509 -120.542680 109 1070ft 27kts
26-Jul-17 11:48 46.566865 -120.532239 108 1070ft 23kts
26-Jul-17 11:49 46.566447 -120.531557 167 1070ft 0kts
26-Jul-17 11:50 46.566328 -120.534732 290 1070ft 50kts
26-Jul-17 11:51 46.578947 -120.575489 303 1792ft 124kts
26-Jul-17 11:52 46.610566 -120.579356 21 3310ft 140kts
26-Jul-17 11:53 46.644884 -120.550714 28 4515ft 153kts
26-Jul-17 11:54 46.684538 -120.519303 24 5301ft 168kts
26-Jul-17 11:55 46.728804 -120.496725 15 6067ft 169kts
26-Jul-17 11:56 46.773594 -120.475200 15 6821ft 171kts
26-Jul-17 11:57 46.818116 -120.450623 20 7577ft 172kts
26-Jul-17 11:58 46.862595 -120.425131 20 8337ft 171kts
26-Jul-17 11:59 46.906963 -120.400338 20 9095ft 170kts
26-Jul-17 12:00 46.951869 -120.374957 20 9519ft 185kts
26-Jul-17 12:01 46.992210 -120.352183 20 9504ft 196kts
26-Jul-17 12:02 47.042950 -120.323741 21 9501ft 198kts
26-Jul-17 12:03 47.094447 -120.294683 20 9495ft 198kts
26-Jul-17 12:04 47.145128 -120.265406 20 9484ft 198kts
26-Jul-17 12:05 47.194601 -120.236007 20 9473ft 197kts
26-Jul-17 12:06 47.245304 -120.205288 20 9471ft 197kts
26-Jul-17 12:07 47.295828 -120.174657 20 9471ft 196kts
26-Jul-17 12:08 47.346161 -120.144082 20 9472ft 196kts
26-Jul-17 12:09 47.396013 -120.113762 20 9472ft 196kts
26-Jul-17 12:10 47.446440 -120.083054 20 9472ft 196kts
26-Jul-17 12:11 47.498548 -120.058078 353 8597ft 228kts
26-Jul-17 12:12 47.540932 -120.016568 75 9454ft 187kts
26-Jul-17 12:13 47.578205 -119.966131 5 9373ft 197kts
26-Jul-17 12:14 47.629271 -119.943009 16 9590ft 189kts
26-Jul-17 12:15 47.681020 -119.918786 18 9476ft 195kts
26-Jul-17 12:16 47.730687 -119.885859 20 9464ft 195kts
26-Jul-17 12:17 47.780135 -119.854232 20 9502ft 194kts
26-Jul-17 12:18 47.829659 -119.822274 20 9499ft 194kts
26-Jul-17 12:19 47.879049 -119.790189 20 9501ft 193kts
26-Jul-17 12:20 47.928161 -119.758262 20 9506ft 193kts
26-Jul-17 12:21 47.977310 -119.726433 20 9512ft 192kts
26-Jul-17 12:22 48.026480 -119.694776 20 9515ft 193kts
26-Jul-17 12:23 48.076926 -119.672310 14 9524ft 193kts
26-Jul-17 12:24 48.125907 -119.649769 12 9511ft 192kts
26-Jul-17 12:25 48.177468 -119.629720 10 9515ft 191kts
26-Jul-17 12:26 48.229096 -119.610071 15 9516ft 191kts
26-Jul-17 12:27 48.279559 -119.584833 15 9515ft 192kts
26-Jul-17 12:28 48.330334 -119.559366 15 9515ft 192kts
26-Jul-17 12:29 48.380930 -119.533959 15 9515ft 192kts
26-Jul-17 12:30 48.432708 -119.510843 11 9386ft 202kts
26-Jul-17 12:31 48.482862 -119.533898 306 9698ft 181kts
26-Jul-17 12:32 48.516726 -119.586399 333 9227ft 219kts
26-Jul-17 12:33 48.576330 -119.635193 332 3949ft 315kts
26-Jul-17 12:34 48.626222 -119.677205 334 5576ft 196kts
26-Jul-17 12:35 48.662993 -119.711775 333 7067ft 147kts
26-Jul-17 12:36 48.694302 -119.724230 4 8526ft 119kts
26-Jul-17 12:37 48.737035 -119.719411 4 8520ft 170kts
26-Jul-17 12:38 48.785339 -119.713890 4 8511ft 177kts
26-Jul-17 12:39 48.834549 -119.708318 4 8508ft 178kts
26-Jul-17 12:40 48.883924 -119.703056 4 8506ft 178kts
26-Jul-17 12:41 48.933241 -119.697450 4 8510ft 175kts
26-Jul-17 12:42 48.983679 -119.684544 9 6962ft 208kts
26-Jul-17 12:43 49.031284 -119.668602 4 7351ft 166kts
26-Jul-17 12:44 49.078169 -119.653836 10 7017ft 179kts
26-Jul-17 12:45 49.120558 -119.637724 10 7308ft 160kts
26-Jul-17 12:46 49.162663 -119.620706 10 7694ft 154kts
26-Jul-17 12:47 49.204077 -119.603665 10 8002ft 158kts
26-Jul-17 12:48 49.248179 -119.585701 10 8004ft 168kts
26-Jul-17 12:49 49.293537 -119.567315 10 7992ft 170kts
26-Jul-17 12:50 49.339804 -119.548659 10 7808ft 179kts
26-Jul-17 12:51 49.389608 -119.530438 9 7242ft 187kts
26-Jul-17 12:52 49.440166 -119.525716 340 6654ft 183kts
26-Jul-17 12:53 49.490116 -119.539039 359 6062ft 184kts
26-Jul-17 12:54 49.534795 -119.528005 9 5399ft 151kts
26-Jul-17 12:55 49.574280 -119.514220 9 4837ft 139kts
26-Jul-17 12:56 49.605397 -119.503288 7 5551ft 117kts
26-Jul-17 12:57 49.643408 -119.490197 15 6114ft 162kts
26-Jul-17 12:58 49.688302 -119.473785 15 6704ft 155kts
26-Jul-17 12:59 49.728405 -119.459571 15 6279ft 153kts
26-Jul-17 13:00 49.763388 -119.447124 14 5433ft 144kts
26-Jul-17 13:01 49.801821 -119.433479 13 4221ft 139kts
26-Jul-17 13:02 49.840776 -119.419649 14 2848ft 114kts
26-Jul-17 13:03 49.870153 -119.409121 14 2551ft 115kts
26-Jul-17 13:04 49.895947 -119.396838 33 2422ft 104kts
26-Jul-17 13:05 49.921161 -119.375356 14 1987ft 113kts
26-Jul-17 13:06 49.951075 -119.377014 0 1369ft 56kts
26-Jul-17 13:07 49.950479 -119.379791 218 1370ft 0kts
26-Jul-17 13:08 49.950479 -119.379791 218 1370ft 0kts
26-Jul-17 13:09 49.950479 -119.379791 218 1370ft 0kts
26-Jul-17 13:10 49.950479 -119.379791 218 1370ft 0kts
26-Jul-17 13:11 49.950479 -119.379791 218 1370ft 0kts
26-Jul-17 13:12 49.950479 -119.379791 218 1370ft 0kts
26-Jul-17 13:13 49.950479 -119.379791 218 1370ft 0kts
26-Jul-17 13:14 49.950479 -119.379791 218 1370ft 0kts
26-Jul-17 13:15 49.950479 -119.379791 218 1370ft 0kts
26-Jul-17 13:16 49.950479 -119.379791 218 1370ft 0kts
26-Jul-17 13:17 49.950479 -119.379791 218 1370ft 0kts
26-Jul-17 13:18 49.950479 -119.379791 218 1370ft 0kts
26-Jul-17 13:19 49.950479 -119.379791 218 1370ft 0kts
26-Jul-17 13:20 49.950479 -119.379791 218 1370ft 0kts
26-Jul-17 13:21 49.950479 -119.379791 218 1370ft 0kts

Navigation Log

Ident Type
Flight plan parsing failed, navigation log unavailable